Aviation Digital Data Service (ADDS)

Output produced by METARs form (2210 UTC 23 March 2017)
found at http://aviationweather.gov/adds/metars/
 
KMBS 231720Z 2318/2418 12010KT P6SM BKN100 
     FM240000 14006KT P6SM OVC060 
     FM240500 16009KT 3SM -RA OVC030 WS020/22040KT 
     FM240800 18007KT P6SM BKN035 WS020/23045KT 
     FM241400 23012G20KT P6SM OVC012